Have a Safe July 4th! 

Flight Track Log - Related Links

Times and Time Zones

All times are in EDT time to prevent confusion due to time zone crossing. See the SKW5516 flight status page for this flight to view local times or setup timezone preferences in your user account.

Time Position Orientation Groundspeed Altitude Reporting Facility
EDT Latitude Longitude Course Direction KTS MPH feet Rate Location/Type
Sun 07:57:00 AM 30.4083 -97.6413 291° West  Level FlightAware Approximate
Sun 07:57:10 AM 30.2567 -97.8175 291° West 251 289 5,500  Level Houston Center
Sun 07:58:00 AM 30.4514 -97.7662 293° West  Level FlightAware Approximate
Sun 07:58:11 AM 30.3047 -97.9011 304° West 276 318 8,300  Level Houston Center
Sun 07:59:00 AM 30.4965 -97.8903 293° West  Level FlightAware Approximate
Sun 07:59:11 AM 30.3431 -97.9694 303° West 278 320 10,500  Level Houston Center
Sun 08:00:00 AM 30.5387 -98.0157 291° West  Level FlightAware Approximate
Sun 08:00:12 AM 30.3883 -98.0517 303° West 296 341 11,700  Level Houston Center
Sun 08:01:00 AM 30.5806 -98.1414 291° West  Level FlightAware Approximate
Sun 08:01:13 AM 30.4392 -98.1433 303° West 327 376 13,500  Level Houston Center
Sun 08:02:00 AM 30.6224 -98.2671 291° West  Level FlightAware Approximate
Sun 08:02:13 AM 30.4928 -98.2369 304° West 341 392 15,200  Level Houston Center
Sun 08:03:14 AM 30.5500 -98.3325 305° West 352 405 17,100 1,574 Climbing Houston Center
Sun 08:04:15 AM 30.6353 -98.3967 327° Northwest 359 413 18,400 1,339 Climbing Houston Center
Sun 08:05:15 AM 30.7222 -98.4636 327° Northwest 366 421 19,800 1,339 Climbing Houston Center
Sun 08:06:16 AM 30.8100 -98.5331 326° Northwest 374 430 21,100 1,279 Climbing Houston Center
Sun 08:07:17 AM 30.9014 -98.6047 326° Northwest 388 447 22,400 1,140 Climbing Houston Center
Sun 08:08:17 AM 30.9958 -98.6775 327° Northwest 398 458 23,400 1,190 Climbing Houston Center
Sun 08:09:18 AM 31.0911 -98.7511 327° Northwest 404 465 24,800 1,131 Climbing Houston Center
Sun 08:10:19 AM 31.1881 -98.8278 326° Northwest 414 476 25,700 992 Climbing Houston Center
Sun 08:11:19 AM 31.2878 -98.9058 326° Northwest 423 487 26,800 1,140 Climbing Houston Center
Sun 08:12:20 AM 31.3858 -98.9847 326° Northwest 424 488 28,000 1,033 Climbing Houston Center
Sun 08:13:21 AM 31.4842 -99.0622 326° Northwest 422 486 28,900 942 Climbing Houston Center
Sun 08:14:21 AM 31.5831 -99.1419 326° Northwest 425 489 29,900 874 Climbing Houston Center
Sun 08:15:04 AM 31.6453 -99.1947 324° Northwest 421 484 30,400 699 Climbing Fort Worth Center
Sun 08:16:04 AM 31.7275 -99.2917 315° West 421 484 31,100 850 Climbing Fort Worth Center
Sun 08:17:04 AM 31.8114 -99.3936 314° West 431 496 32,100 1,050 Climbing Fort Worth Center
Sun 08:18:04 AM 31.8956 -99.4933 315° West 431 496 33,200 1,000 Climbing Fort Worth Center
Sun 08:19:04 AM 31.9753 -99.5931 313° West 426 490 34,100 750 Climbing Fort Worth Center
Sun 08:20:04 AM 32.0569 -99.6956 313° West 420 483 34,700 550 Climbing Fort Worth Center
Sun 08:21:04 AM 32.1386 -99.7956 314° West 425 489 35,200 500 Climbing Fort Worth Center
Sun 08:22:04 AM 32.2200 -99.8983 313° West 425 489 35,700 600 Climbing Fort Worth Center
Sun 08:23:04 AM 32.3036 -100.0014 314° West 425 489 36,400 700 Climbing Fort Worth Center
Sun 08:24:04 AM 32.3850 -100.1022 314° West 420 483 37,100 700 Climbing Fort Worth Center
Sun 08:25:04 AM 32.4642 -100.2031 313° West 420 483 37,800 450 Climbing Fort Worth Center
Sun 08:26:04 AM 32.5433 -100.3042 313° West 420 483 38,000 100 Climbing Fort Worth Center
Sun 08:27:04 AM 32.6325 -100.4131 314° West 420 483 38,000  Level Fort Worth Center
Sun 08:28:04 AM 32.7136 -100.5169 313° West 420 483 38,000  Level Fort Worth Center
Sun 08:29:04 AM 32.7944 -100.6161 314° West 420 483 38,000  Level Fort Worth Center
Sun 08:30:04 AM 32.8772 -100.7231 313° West 420 483 38,000  Level Fort Worth Center
Sun 08:31:04 AM 32.9600 -100.8300 313° West 426 490 38,000  Level Fort Worth Center
Sun 08:32:04 AM 33.0428 -100.9347 313° West 426 490 38,000  Level Fort Worth Center
Sun 08:33:04 AM 33.1275 -101.0375 315° West 426 490 38,000  Level Fort Worth Center
Sun 08:34:04 AM 33.2017 -101.1372 312° West 439 505 38,000  Level Fort Worth Center
Sun 08:35:04 AM 33.2944 -101.2506 314° West 431 496 38,000  Level Fort Worth Center
Sun 08:36:04 AM 33.3686 -101.3483 312° West 431 496 38,000  Level Fort Worth Center
Sun 08:37:04 AM 33.4586 -101.4644 313° West 431 496 38,000  Level Fort Worth Center
Sun 08:38:04 AM 33.5328 -101.5625 312° West 426 490 38,000  Level Fort Worth Center
Sun 08:39:04 AM 33.6267 -101.6842 313° West 447 514 38,000  Level Fort Worth Center
Sun 08:40:04 AM 33.7086 -101.7906 313° West 440 506 38,000  Level Fort Worth Center
Sun 08:41:04 AM 33.7803 -101.8864 312° West 440 506 38,000  Level Fort Worth Center
Sun 08:42:04 AM 33.8678 -102.0036 312° West 432 497 38,000  Level Fort Worth Center
Sun 08:43:40 AM 33.9911 -102.1650 313° West 426 490 38,000  Level Albuquerque Center
Sun 08:44:40 AM 34.0694 -102.2697 312° West 423 487 38,000  Level Albuquerque Center
Sun 08:45:40 AM 34.1475 -102.3742 312° West 421 484 38,000  Level Albuquerque Center
Sun 08:46:41 AM 34.2222 -102.4717 313° West 419 482 38,000  Level Albuquerque Center
Sun 08:47:41 AM 34.3006 -102.5764 312° West 419 482 38,000  Level Albuquerque Center
Sun 08:48:42 AM 34.3778 -102.6800 312° West 417 480 38,000  Level Albuquerque Center
Sun 08:49:42 AM 34.4547 -102.7856 311° West 416 479 38,000  Level Albuquerque Center
Sun 08:50:43 AM 34.5253 -102.8994 307° West 405 466 38,000  Level Albuquerque Center
Sun 08:51:43 AM 34.5861 -103.0153 303° West 406 467 38,000  Level Albuquerque Center
Sun 08:52:43 AM 34.6469 -103.1300 303° West 402 463 38,000  Level Albuquerque Center
Sun 08:53:44 AM 34.7072 -103.2456 302° West 402 463 38,000  Level Albuquerque Center
Sun 08:54:44 AM 34.7672 -103.3622 302° West 403 464 38,000  Level Albuquerque Center
Sun 08:55:45 AM 34.8269 -103.4792 302° West 403 464 38,000  Level Albuquerque Center
Sun 08:56:45 AM 34.8858 -103.5950 302° West 400 460 38,000  Level Albuquerque Center
Sun 08:57:45 AM 34.9461 -103.7117 302° West 402 463 38,000  Level Albuquerque Center
Sun 08:58:46 AM 35.0061 -103.8281 302° West 402 463 38,000  Level Albuquerque Center
Sun 08:59:46 AM 35.0686 -103.9525 302° West 401 461 38,000  Level Albuquerque Center
Sun 09:00:47 AM 35.1283 -104.0686 302° West 403 464 38,000  Level Albuquerque Center
Sun 09:01:47 AM 35.1856 -104.1831 301° West 398 458 38,000  Level Albuquerque Center
Sun 09:02:48 AM 35.2447 -104.2983 302° West 399 459 38,000  Level Albuquerque Center
Sun 09:03:48 AM 35.2992 -104.4078 301° West 399 459 38,000  Level Albuquerque Center
Sun 09:04:49 AM 35.3522 -104.5156 301° West 394 453 38,000  Level Albuquerque Center
Sun 09:05:49 AM 35.4092 -104.6325 301° West 395 455 38,000  Level Albuquerque Center
Sun 09:06:50 AM 35.4675 -104.7489 302° West 396 456 38,000  Level Albuquerque Center
Sun 09:07:50 AM 35.5247 -104.8658 301° West 397 457 38,000  Level Albuquerque Center
Sun 09:08:51 AM 35.5825 -104.9833 301° West 398 458 38,000  Level Albuquerque Center
Sun 09:09:51 AM 35.6400 -105.1003 301° West 398 458 38,000  Level Albuquerque Center
Sun 09:10:52 AM 35.6919 -105.2200 298° West 395 455 38,000  Level Albuquerque Center
Sun 09:11:52 AM 35.7383 -105.3453 295° West 397 457 38,000  Level Albuquerque Center
Sun 09:12:53 AM 35.7853 -105.4686 295° West 396 456 38,000  Level Albuquerque Center
Sun 09:13:53 AM 35.8336 -105.5925 296° West 399 459 38,000  Level Albuquerque Center
Sun 09:14:54 AM 35.8803 -105.7156 295° West 397 457 38,000  Level Albuquerque Center
Sun 09:15:55 AM 35.9278 -105.8397 295° West 401 461 38,000  Level Albuquerque Center
Sun 09:16:55 AM 35.9736 -105.9614 295° West 396 456 38,000  Level Albuquerque Center
Sun 09:17:56 AM 36.0203 -106.0861 295° West 400 460 38,000  Level Albuquerque Center
Sun 09:18:56 AM 36.0672 -106.2108 295° West 401 461 38,000  Level Albuquerque Center
Sun 09:19:57 AM 36.1144 -106.3369 295° West 404 465 38,000  Level Albuquerque Center
Sun 09:20:57 AM 36.1594 -106.4600 294° West 399 459 38,000  Level Albuquerque Center
Sun 09:21:58 AM 36.2150 -106.6086 295° West 400 460 38,000  Level Albuquerque Center
Sun 09:22:59 AM 36.2586 -106.7289 294° West 400 460 38,000  Level Albuquerque Center
Sun 09:23:59 AM 36.3031 -106.8492 295° West 401 461 38,000  Level Albuquerque Center
Sun 09:25:00 AM 36.3539 -106.9900 294° West 401 461 38,000  Level Albuquerque Center
Sun 09:25:50 AM 36.3897 -107.0906 294° West 404 465 38,000  Level Denver Center
Sun 09:26:50 AM 36.4350 -107.2117 295° West 403 464 38,000  Level Denver Center
Sun 09:27:51 AM 36.4778 -107.3331 294° West 403 464 38,000  Level Denver Center
Sun 09:28:52 AM 36.5289 -107.4753 294° West 403 464 38,000  Level Denver Center
Sun 09:29:52 AM 36.5728 -107.5978 294° West 406 467 38,000  Level Denver Center
Sun 09:30:53 AM 36.6233 -107.7406 294° West 405 466 38,000  Level Denver Center
Sun 09:31:54 AM 36.6681 -107.8647 294° West 409 471 38,000  Level Denver Center
Sun 09:32:55 AM 36.7114 -107.9903 293° West 411 473 38,000  Level Denver Center
Sun 09:33:56 AM 36.7628 -108.1353 294° West 412 474 38,000  Level Denver Center
Sun 09:34:56 AM 36.8064 -108.2606 294° West 412 474 38,000  Level Denver Center
Sun 09:35:57 AM 36.8511 -108.3875 294° West 417 480 38,000  Level Denver Center
Sun 09:36:58 AM 36.9028 -108.5350 294° West 417 480 38,000  Level Denver Center
Sun 09:37:59 AM 36.9478 -108.6614 294° West 417 480 38,000  Level Denver Center
Sun 09:39:00 AM 36.9919 -108.7889 293° West 418 481 38,000  Level Denver Center
Sun 09:40:01 AM 37.0442 -108.9386 294° West 421 484 38,000  Level Denver Center
Sun 09:41:01 AM 37.0889 -109.0672 294° West 423 487 38,000  Level Denver Center
Sun 09:42:02 AM 37.1333 -109.1967 293° West 424 488 38,000  Level Denver Center
Sun 09:43:03 AM 37.1847 -109.3492 293° West 426 490 38,000  Level Denver Center
Sun 09:44:04 AM 37.2292 -109.4789 293° West 426 490 38,000  Level Denver Center
Sun 09:45:05 AM 37.2811 -109.6328 293° West 430 495 38,000  Level Denver Center
Sun 09:46:06 AM 37.3256 -109.7650 293° West 430 495 38,000  Level Denver Center
Sun 09:47:07 AM 37.3703 -109.8972 293° West 430 495 38,000  Level Denver Center
Sun 09:48:08 AM 37.4225 -110.0519 293° West 430 495 38,000  Level Denver Center
Sun 09:49:09 AM 37.4697 -110.1944 293° West 435 501 38,000  Level Denver Center
Sun 09:50:10 AM 37.5106 -110.3186 293° West 428 493 38,000  Level Denver Center
Sun 09:51:11 AM 37.5628 -110.4764 293° West 436 502 38,000  Level Denver Center
Sun 09:52:12 AM 37.6022 -110.5981 292° West 434 499 38,000  Level Denver Center
Sun 09:53:13 AM 37.6475 -110.7375 292° West 432 497 38,000  Level Denver Center
Sun 09:54:14 AM 37.7036 -110.9067 293° West 436 502 38,000  Level Denver Center
Sun 09:55:27 AM 37.7378 -111.0828 284° West 433 498 38,000  Level Denver Center
Sun 09:56:05 AM 37.7536 -111.1708 283° West 433 498 38,000  Level Salt Lake Center
Sun 09:57:06 AM 37.7769 -111.3186 281° West 430 495 38,000  Level Salt Lake Center
Sun 09:58:07 AM 37.8033 -111.4672 283° West 434 499 38,000  Level Salt Lake Center
Sun 09:59:08 AM 37.8283 -111.6167 282° West 434 499 38,000  Level Salt Lake Center
Sun 10:00:09 AM 37.8517 -111.7642 281° West 431 496 38,000  Level Salt Lake Center
Sun 10:01:10 AM 37.8761 -111.9156 282° West 436 502 38,000  Level Salt Lake Center
Sun 10:02:11 AM 37.9006 -112.0644 282° West 436 502 38,000  Level Salt Lake Center
Sun 10:03:12 AM 37.9258 -112.2147 282° West 438 504 38,000  Level Salt Lake Center
Sun 10:04:13 AM 37.9539 -112.3953 281° West 437 503 38,000  Level Salt Lake Center
Sun 10:05:14 AM 37.9781 -112.5458 282° West 439 505 38,000  Level Salt Lake Center
Sun 10:06:15 AM 38.0011 -112.6969 281° West 441 507 38,000  Level Salt Lake Center
Sun 10:07:16 AM 38.0250 -112.8486 281° West 444 511 38,000  Level Salt Lake Center
Sun 10:08:18 AM 38.0478 -113.0000 281° West 442 509 38,000  Level Salt Lake Center
Sun 10:09:19 AM 38.0714 -113.1522 281° West 443 510 38,000  Level Salt Lake Center
Sun 10:10:20 AM 38.0936 -113.3036 281° West 441 507 38,000  Level Salt Lake Center
Sun 10:11:21 AM 38.1161 -113.4553 281° West 442 509 38,000  Level Salt Lake Center
Sun 10:12:22 AM 38.1428 -113.6383 281° West 442 509 38,000  Level Salt Lake Center
Sun 10:13:23 AM 38.1656 -113.7917 281° West 443 510 38,000  Level Salt Lake Center
Sun 10:14:24 AM 38.1869 -113.9453 280° West 443 510 38,000  Level Salt Lake Center
Sun 10:15:25 AM 38.2092 -114.0978 281° West 442 509 38,000  Level Salt Lake Center
Sun 10:16:26 AM 38.2308 -114.2511 280° West 442 509 38,000  Level Salt Lake Center
Sun 10:17:27 AM 38.2497 -114.4078 279° West 446 513 38,000  Level Salt Lake Center
Sun 10:18:28 AM 38.2397 -114.5636 265° West 443 510 38,000  Level Salt Lake Center
Sun 10:19:30 AM 38.2300 -114.7208 266° West 447 514 38,000  Level Salt Lake Center
Sun 10:20:31 AM 38.2208 -114.8786 266° West 449 517 38,000  Level Salt Lake Center
Sun 10:21:32 AM 38.2114 -115.0350 266° West 447 514 38,000  Level Salt Lake Center
Sun 10:22:33 AM 38.1994 -115.2242 265° West 446 513 38,000  Level Salt Lake Center
Sun 10:23:34 AM 38.1878 -115.3842 265° West 453 521 38,000  Level Salt Lake Center
Sun 10:24:36 AM 38.1769 -115.5428 265° West 452 520 38,000  Level Salt Lake Center
Sun 10:25:37 AM 38.1656 -115.7039 265° West 456 525 38,000  Level Salt Lake Center
Sun 10:26:38 AM 38.1547 -115.8653 265° West 458 527 38,000  Level Salt Lake Center
Sun 10:27:39 AM 38.1428 -116.0267 265° West 460 529 38,000  Level Salt Lake Center
Sun 10:28:40 AM 38.1306 -116.1889 265° West 461 531 38,000  Level Salt Lake Center
Sun 10:29:23 AM 38.1208 -116.3194 265° West 462 532 38,000  Level Oakland Center
Sun 10:30:23 AM 38.1089 -116.4828 265° West 464 534 38,000  Level Oakland Center
Sun 10:30:43 AM 38.1061 -116.5169 264° West 465 535 38,000  Level Salt Lake Center
Sun 10:31:44 AM 38.0928 -116.6800 264° West 465 535 38,000  Level Salt Lake Center
Sun 10:32:45 AM 38.0800 -116.8447 264° West 466 536 38,000  Level Salt Lake Center
Sun 10:33:26 AM 38.0697 -116.9742 264° West 465 535 38,000  Level Oakland Center
Sun 10:34:26 AM 38.0553 -117.1431 264° West 470 541 38,000  Level Oakland Center
Sun 10:35:27 AM 38.0383 -117.3153 263° West 475 547 38,000  Level Oakland Center
Sun 10:36:28 AM 38.0225 -117.4811 263° West 471 542 38,000  Level Oakland Center
Sun 10:37:29 AM 38.0061 -117.6450 263° West 468 539 38,000  Level Oakland Center
Sun 10:38:30 AM 37.9900 -117.8092 263° West 469 540 38,000  Level Oakland Center
Sun 10:39:30 AM 37.9733 -117.9722 263° West 468 539 38,000  Level Oakland Center
Sun 10:40:31 AM 37.9561 -118.1372 263° West 471 542 38,000  Level Oakland Center
Sun 10:41:32 AM 37.9389 -118.3022 263° West 471 542 38,000  Level Oakland Center
Sun 10:42:33 AM 37.9214 -118.4683 262° West 474 545 38,000 -393 Level Oakland Center
Sun 10:43:34 AM 37.9028 -118.6328 262° West 473 544 37,200 -893 Descending Oakland Center
Sun 10:44:34 AM 37.8844 -118.7994 262° West 478 550 36,200 -595 Descending Oakland Center
Sun 10:45:35 AM 37.8669 -118.9661 262° West 479 551 36,000 -98 Descending Oakland Center
Sun 10:46:36 AM 37.8456 -119.1317 261° West 478 550 36,000  Level Oakland Center
Sun 10:47:37 AM 37.8286 -119.2975 263° West 477 549 36,000  Level Oakland Center
Sun 10:48:38 AM 37.8108 -119.4600 262° West 472 543 36,000  Level Oakland Center
Sun 10:49:38 AM 37.7908 -119.6239 261° West 470 541 36,000  Level Oakland Center
Sun 10:50:39 AM 37.7728 -119.7889 262° West 474 545 36,000  Level Oakland Center
Sun 10:51:40 AM 37.7525 -119.9533 261° West 472 543 36,000 -492 Level Oakland Center
Sun 10:52:41 AM 37.7333 -120.1189 262° West 475 547 35,000 -1,770 Descending Oakland Center
Sun 10:53:42 AM 37.7133 -120.2806 261° West 468 539 32,400 -2,164 Descending Oakland Center
Sun 10:54:43 AM 37.6933 -120.4364 261° West 452 520 30,600 -2,132 Descending Oakland Center
Sun 10:55:43 AM 37.6747 -120.5900 261° West 444 511 28,100 -2,826 Descending Oakland Center
Sun 10:56:44 AM 37.6531 -120.7611 261° West 415 478 24,900 -3,000 Descending Oakland Center
Sun 10:57:45 AM 37.6344 -120.9011 261° West 405 466 22,000 -2,759 Descending Oakland Center
Sun 10:58:11 AM 37.6333 -120.9667 269° West 400 460 20,900 -2,700 Descending Northern Cal TRACON
Sun 10:59:05 AM 37.6167 -121.0833 260° West 400 460 18,400 -2,833 Descending Northern Cal TRACON
Sun 10:59:59 AM 37.6000 -121.2000 260° West 403 464 15,800 -2,550 Descending Northern Cal TRACON
Sun 11:01:05 AM 37.5667 -121.3500 254° West 385 443 13,300 -2,100 Descending Northern Cal TRACON
Sun 11:01:59 AM 37.5500 -121.4667 260° West 374 430 11,600 -1,278 Descending Northern Cal TRACON
Sun 11:02:53 AM 37.5333 -121.5833 260° West 363 418 11,000 -556 Descending Northern Cal TRACON
Sun 11:03:47 AM 37.5167 -121.6833 258° West 306 352 10,600 -895 Descending Northern Cal TRACON
Sun 11:04:47 AM 37.5000 -121.7667 256° West 270 311 9,300 -1,286 Descending Northern Cal TRACON
Sun 11:05:53 AM 37.4833 -121.8667 258° West 275 316 7,900 -1,000 Descending Northern Cal TRACON
Sun 11:06:53 AM 37.5000 -121.9500 284° West 240 276 7,200 -1,158 Descending Northern Cal TRACON
Sun 11:07:47 AM 37.5167 -122.0333 284° West 264 304 5,700 -1,105 Descending Northern Cal TRACON
Sun 11:08:47 AM 37.5333 -122.1000 288° West 206 237 5,100 -1,023 Descending Northern Cal TRACON
Sun 11:09:56 AM 37.5583 -122.1731 293° West 203 234 3,500 -1,391 Descending Oakland Center

Login

Don't have an account? Register now (free) for customized features, flight alerts, and more!